Vienna, VA (22180)

7:53 PM EST on November 25, 2014 (GMT -0500)
Vienna Woods | Change Station
CLOSE
Current Station
Personal Weather Station
Location: Vienna, VA
Elevation: 361 ft
Nearby Weather Stations
Active Advisory: Winter Weather Advisory

Elev 361 ft 38.90 °N, 77.27 °W | Updated 23 seconds ago

Partly Cloudy
Partly Cloudy
43.2 °F
Feels Like 43 °F
N
0.0
Wind Variable Wind from SSE
Gusts 0.0 mph

Today
High -- | Low -- °F
--% Chance of Precip.
Yesterday
High -- | Low -- °F
Precip. -- in
7:02 AM 4:49 PM
Waxing Crescent, 15% visible
Pressure 30.11 in
Visibility 10.0 miles
Clouds Scattered Clouds 16000 ft
Mostly Cloudy 22000 ft
Windchill 43 °F
Dew Point 37 °F
Humidity 78%
Rainfall 0.00 in
Snow Depth Not available.
UV 0 out of 12
Pollen .10 out of 12
Air Quality Not available.
Flu Activity Not available.
METAR KIAD 252352Z 00000KT 10SM SCT160 BKN220 07/02 A3010 RMK AO2 SLP194 T00670022 10139 20067 53022

More Conditions Fewer Conditions

Pressure 30.11 in
Visibility 10.0 miles
Clouds Scattered Clouds 16000 ft
Mostly Cloudy 22000 ft
Windchill 43 °F
Dew Point 37 °F
Humidity 78%
Rainfall 0.00 in
Snow Depth Not available.
UV 0 out of 12
Pollen .10 out of 12
Air Quality Not available.
Flu Activity Not available.
METAR KIAD 252352Z 00000KT 10SM SCT160 BKN220 07/02 A3010 RMK AO2 SLP194 T00670022 10139 20067 53022

More Conditions Fewer Conditions

10-Day Weather Forecast

Almanac

Astronomy

Nov. 25, 2014 Rise Set
Actual Time
Civil Twilight
Nautical Twilight
Astronomical Twilight
Moon
Length of Visible Light
Length of Day
Tomorrow will be .
, % of the Moon is Illuminated

Today's Extremes

State Highs State Lows

Community

WunderPhotos

Upload Photos

1,773,629 photos uploaded!

WunderBlogs® & News

Nearby

Air Quality

  Air Quality AQ Index Pollutant
Not available.

Snow Depth

Station Depth Elevation

Earthquake Activity

City Distance Mag. Time & Date
Minimum magnitude displayed is 2.5.

Coastal Water Temperatures

Place Temperature

Nearby Weather Stations